sensor_id;sensor_type;location;lat;lon;timestamp;pressure;altitude;pressure_sealevel;temperature;humidity
43115;BME280;28727;50.068;14.452;2024-03-23T00:51:40;98496.91;;;12.80;60.78
43115;BME280;28727;50.068;14.452;2024-03-23T00:54:11;98496.09;;;12.80;60.98
43115;BME280;28727;50.068;14.452;2024-03-23T00:57:07;98490.41;;;12.83;60.68
43115;BME280;28727;50.068;14.452;2024-03-23T00:59:40;98484.09;;;12.84;60.46
43115;BME280;28727;50.068;14.452;2024-03-23T01:02:11;98485.50;;;12.86;60.50
43115;BME280;28727;50.068;14.452;2024-03-23T01:04:47;98479.00;;;12.89;60.37
43115;BME280;28727;50.068;14.452;2024-03-23T01:07:22;98470.63;;;12.92;60.32
43115;BME280;28727;50.068;14.452;2024-03-23T01:09:52;98471.63;;;12.97;60.00
43115;BME280;28727;50.068;14.452;2024-03-23T01:12:23;98460.00;;;12.98;59.92
43115;BME280;28727;50.068;14.452;2024-03-23T01:14:54;98452.47;;;12.95;59.93
43115;BME280;28727;50.068;14.452;2024-03-23T01:17:26;98455.31;;;12.94;59.45
43115;BME280;28727;50.068;14.452;2024-03-23T01:20:05;98449.22;;;12.93;59.33
43115;BME280;28727;50.068;14.452;2024-03-23T01:22:36;98449.59;;;12.90;58.65
43115;BME280;28727;50.068;14.452;2024-03-23T01:25:07;98445.13;;;12.91;58.83
43115;BME280;28727;50.068;14.452;2024-03-23T01:27:45;98435.94;;;12.93;58.55
43115;BME280;28727;50.068;14.452;2024-03-23T01:30:15;98432.47;;;12.93;58.28
43115;BME280;28727;50.068;14.452;2024-03-23T01:32:46;98420.06;;;12.87;58.53
43115;BME280;28727;50.068;14.452;2024-03-23T01:35:18;98419.25;;;12.86;58.45
43115;BME280;28727;50.068;14.452;2024-03-23T01:37:50;98423.31;;;12.89;58.57
43115;BME280;28727;50.068;14.452;2024-03-23T01:40:22;98415.19;;;12.84;58.57
43115;BME280;28727;50.068;14.452;2024-03-23T01:42:57;98418.22;;;12.81;58.62
43115;BME280;28727;50.068;14.452;2024-03-23T01:45:29;98408.25;;;12.76;58.49
43115;BME280;28727;50.068;14.452;2024-03-23T01:48:00;98417.41;;;12.73;58.73
43115;BME280;28727;50.068;14.452;2024-03-23T01:50:32;98406.41;;;12.77;59.13
43115;BME280;28727;50.068;14.452;2024-03-23T01:53:07;98406.81;;;12.80;59.03
43115;BME280;28727;50.068;14.452;2024-03-23T01:55:38;98407.63;;;12.81;59.29
43115;BME280;28727;50.068;14.452;2024-03-23T01:58:18;98401.13;;;12.83;59.20
43115;BME280;28727;50.068;14.452;2024-03-23T02:00:49;98401.94;;;12.84;59.12
43115;BME280;28727;50.068;14.452;2024-03-23T02:03:27;98392.94;;;12.85;59.83
43115;BME280;28727;50.068;14.452;2024-03-23T02:05:59;98394.56;;;12.86;59.91
43115;BME280;28727;50.068;14.452;2024-03-23T02:08:34;98391.09;;;12.85;59.45
43115;BME280;28727;50.068;14.452;2024-03-23T02:11:07;98384.19;;;12.78;60.04
43115;BME280;28727;50.068;14.452;2024-03-23T02:13:38;98385.03;;;12.78;60.07
43115;BME280;28727;50.068;14.452;2024-03-23T02:16:10;98384.78;;;12.80;59.50
43115;BME280;28727;50.068;14.452;2024-03-23T02:18:44;98381.94;;;12.75;59.95
43115;BME280;28727;50.068;14.452;2024-03-23T02:21:15;98383.97;;;12.72;59.64
43115;BME280;28727;50.068;14.452;2024-03-23T02:23:46;98378.69;;;12.72;59.48
43115;BME280;28727;50.068;14.452;2024-03-23T02:26:17;98368.91;;;12.73;59.62
43115;BME280;28727;50.068;14.452;2024-03-23T02:28:48;98372.38;;;12.67;59.36
43115;BME280;28727;50.068;14.452;2024-03-23T02:31:21;98360.34;;;12.71;59.03
43115;BME280;28727;50.068;14.452;2024-03-23T02:33:52;98355.88;;;12.71;59.24
43115;BME280;28727;50.068;14.452;2024-03-23T02:36:23;98357.91;;;12.69;59.13
43115;BME280;28727;50.068;14.452;2024-03-23T02:38:56;98346.28;;;12.70;58.66
43115;BME280;28727;50.068;14.452;2024-03-23T02:41:27;98341.19;;;12.69;58.84
43115;BME280;28727;50.068;14.452;2024-03-23T02:44:02;98339.16;;;12.64;58.69
43115;BME280;28727;50.068;14.452;2024-03-23T02:46:33;98325.09;;;12.64;58.50
43115;BME280;28727;50.068;14.452;2024-03-23T02:49:03;98318.16;;;12.63;58.29
43115;BME280;28727;50.068;14.452;2024-03-23T02:51:35;98322.66;;;12.62;58.40
43115;BME280;28727;50.068;14.452;2024-03-23T02:54:08;98317.97;;;12.58;58.89
43115;BME280;28727;50.068;14.452;2024-03-23T02:56:40;98324.09;;;12.52;58.79
43115;BME280;28727;50.068;14.452;2024-03-23T02:59:11;98322.66;;;12.49;58.88
43115;BME280;28727;50.068;14.452;2024-03-23T03:01:44;98321.06;;;12.48;58.90
43115;BME280;28727;50.068;14.452;2024-03-23T03:04:15;98314.34;;;12.46;58.46
43115;BME280;28727;50.068;14.452;2024-03-23T03:06:52;98307.63;;;12.37;59.01
43115;BME280;28727;50.068;14.452;2024-03-23T03:09:51;98304.16;;;12.36;58.78
43115;BME280;28727;50.068;14.452;2024-03-23T03:12:31;98295.41;;;12.36;58.63
43115;BME280;28727;50.068;14.452;2024-03-23T03:15:05;98291.94;;;12.35;58.26
43115;BME280;28727;50.068;14.452;2024-03-23T03:17:40;98290.50;;;12.32;58.34
43115;BME280;28727;50.068;14.452;2024-03-23T03:20:13;98283.00;;;12.29;58.65
43115;BME280;28727;50.068;14.452;2024-03-23T03:22:45;98282.56;;;12.26;58.61
43115;BME280;28727;50.068;14.452;2024-03-23T03:25:16;98280.97;;;12.25;58.60
43115;BME280;28727;50.068;14.452;2024-03-23T03:27:48;98276.88;;;12.22;58.47
43115;BME280;28727;50.068;14.452;2024-03-23T03:30:28;98285.03;;;12.21;58.04
43115;BME280;28727;50.068;14.452;2024-03-23T03:33:00;98272.41;;;12.16;58.80
43115;BME280;28727;50.068;14.452;2024-03-23T03:35:31;98269.13;;;12.14;58.20
43115;BME280;28727;50.068;14.452;2024-03-23T03:38:04;98266.50;;;12.14;58.44
43115;BME280;28727;50.068;14.452;2024-03-23T03:40:36;98258.56;;;12.14;58.07
43115;BME280;28727;50.068;14.452;2024-03-23T03:43:10;98259.38;;;12.15;58.28
43115;BME280;28727;50.068;14.452;2024-03-23T03:45:42;98253.06;;;12.09;58.01
43115;BME280;28727;50.068;14.452;2024-03-23T03:48:14;98252.25;;;12.09;58.03
43115;BME280;28727;50.068;14.452;2024-03-23T03:50:45;98252.25;;;12.09;58.24
43115;BME280;28727;50.068;14.452;2024-03-23T03:53:19;98243.72;;;12.07;58.41
43115;BME280;28727;50.068;14.452;2024-03-23T03:55:50;98243.91;;;12.05;58.40
43115;BME280;28727;50.068;14.452;2024-03-23T03:58:21;98238.63;;;12.05;58.41
43115;BME280;28727;50.068;14.452;2024-03-23T04:00:53;98233.94;;;12.01;58.39
43115;BME280;28727;50.068;14.452;2024-03-23T04:03:25;98236.38;;;12.02;58.23
43115;BME280;28727;50.068;14.452;2024-03-23T04:05:56;98237.41;;;12.01;58.38
43115;BME280;28727;50.068;14.452;2024-03-23T04:08:27;98237.81;;;11.98;58.66
43115;BME280;28727;50.068;14.452;2024-03-23T04:11:01;98240.88;;;11.95;58.86
43115;BME280;28727;50.068;14.452;2024-03-23T04:13:33;98241.47;;;11.90;59.16
43115;BME280;28727;50.068;14.452;2024-03-23T04:16:04;98239.44;;;11.86;59.01
43115;BME280;28727;50.068;14.452;2024-03-23T04:18:39;98235.78;;;11.80;59.11
43115;BME280;28727;50.068;14.452;2024-03-23T04:21:10;98219.28;;;11.78;59.20
43115;BME280;28727;50.068;14.452;2024-03-23T04:23:42;98225.81;;;11.82;59.10
43115;BME280;28727;50.068;14.452;2024-03-23T04:26:16;98221.94;;;11.85;59.16
43115;BME280;28727;50.068;14.452;2024-03-23T04:28:47;98202.41;;;11.86;59.01
43115;BME280;28727;50.068;14.452;2024-03-23T04:31:23;98199.75;;;11.86;58.79
43115;BME280;28727;50.068;14.452;2024-03-23T04:33:53;98217.47;;;11.85;58.78
43115;BME280;28727;50.068;14.452;2024-03-23T04:36:24;98206.47;;;11.88;58.85
43115;BME280;28727;50.068;14.452;2024-03-23T04:38:59;98207.50;;;11.87;58.77
43115;BME280;28727;50.068;14.452;2024-03-23T04:41:30;98212.78;;;11.87;58.93
43115;BME280;28727;50.068;14.452;2024-03-23T04:44:27;98201.78;;;11.84;59.23
43115;BME280;28727;50.068;14.452;2024-03-23T04:47:23;98199.13;;;11.84;59.29
43115;BME280;28727;50.068;14.452;2024-03-23T04:49:54;98195.91;;;11.82;58.97
43115;BME280;28727;50.068;14.452;2024-03-23T04:52:25;98205.47;;;11.83;59.12
43115;BME280;28727;50.068;14.452;2024-03-23T04:55:00;98190.59;;;11.82;59.09
43115;BME280;28727;50.068;14.452;2024-03-23T04:57:30;98191.22;;;11.77;59.29
43115;BME280;28727;50.068;14.452;2024-03-23T05:00:06;98196.91;;;11.74;59.44
43115;BME280;28727;50.068;14.452;2024-03-23T05:02:48;98186.31;;;11.74;59.47
43115;BME280;28727;50.068;14.452;2024-03-23T05:05:24;98189.38;;;11.71;59.21
43115;BME280;28727;50.068;14.452;2024-03-23T05:07:55;98183.25;;;11.64;59.77
43115;BME280;28727;50.068;14.452;2024-03-23T05:10:28;98170.22;;;11.63;59.91
43115;BME280;28727;50.068;14.452;2024-03-23T05:13:04;98175.31;;;11.64;59.75
43115;BME280;28727;50.068;14.452;2024-03-23T05:15:35;98170.03;;;11.64;59.89
43115;BME280;28727;50.068;14.452;2024-03-23T05:18:09;98159.03;;;11.61;60.09
43115;BME280;28727;50.068;14.452;2024-03-23T05:20:41;98151.53;;;11.64;60.11
43115;BME280;28727;50.068;14.452;2024-03-23T05:23:15;98156.38;;;11.61;60.30
43115;BME280;28727;50.068;14.452;2024-03-23T05:25:46;98158.44;;;11.65;60.20
43115;BME280;28727;50.068;14.452;2024-03-23T05:28:17;98153.94;;;11.72;59.92
43115;BME280;28727;50.068;14.452;2024-03-23T05:30:55;98144.81;;;11.75;60.11
43115;BME280;28727;50.068;14.452;2024-03-23T05:33:32;98140.84;;;12.23;59.21
43115;BME280;28727;50.068;14.452;2024-03-23T05:36:03;98140.38;;;12.33;58.62
43115;BME280;28727;50.068;14.452;2024-03-23T05:38:44;98137.38;;;12.23;58.60
43115;BME280;28727;50.068;14.452;2024-03-23T05:41:14;98137.19;;;12.24;58.75
43115;BME280;28727;50.068;14.452;2024-03-23T05:43:45;98115.66;;;12.52;58.02
43115;BME280;28727;50.068;14.452;2024-03-23T05:46:16;98112.59;;;12.49;58.06
43115;BME280;28727;50.068;14.452;2024-03-23T05:48:48;98111.19;;;12.53;58.08
43115;BME280;28727;50.068;14.452;2024-03-23T05:51:19;98111.59;;;12.50;57.91
43115;BME280;28727;50.068;14.452;2024-03-23T05:53:50;98107.75;;;12.46;57.99
43115;BME280;28727;50.068;14.452;2024-03-23T05:56:23;98106.31;;;12.43;57.90
43115;BME280;28727;50.068;14.452;2024-03-23T05:58:55;98099.44;;;12.36;58.17
43115;BME280;28727;50.068;14.452;2024-03-23T06:01:35;98092.75;;;12.26;58.64
43115;BME280;28727;50.068;14.452;2024-03-23T06:04:10;98087.06;;;12.29;58.85
43115;BME280;28727;50.068;14.452;2024-03-23T06:06:41;98088.91;;;12.22;58.77
43115;BME280;28727;50.068;14.452;2024-03-23T06:09:12;98086.25;;;12.22;58.93
43115;BME280;28727;50.068;14.452;2024-03-23T06:11:44;98086.22;;;12.29;58.94
43115;BME280;28727;50.068;14.452;2024-03-23T06:14:18;98089.69;;;12.29;58.88
43115;BME280;28727;50.068;14.452;2024-03-23T06:16:52;98083.38;;;12.30;58.66
43115;BME280;28727;50.068;14.452;2024-03-23T06:19:23;98072.97;;;12.36;59.25
43115;BME280;28727;50.068;14.452;2024-03-23T06:21:54;98064.03;;;12.30;59.35
43115;BME280;28727;50.068;14.452;2024-03-23T06:24:28;98075.44;;;12.30;59.84
43115;BME280;28727;50.068;14.452;2024-03-23T06:26:58;98080.91;;;12.36;59.39
43115;BME280;28727;50.068;14.452;2024-03-23T06:29:32;98063.16;;;12.43;59.23
43115;BME280;28727;50.068;14.452;2024-03-23T06:32:04;98062.94;;;12.44;59.13
43115;BME280;28727;50.068;14.452;2024-03-23T06:34:35;98049.91;;;12.43;59.25
43115;BME280;28727;50.068;14.452;2024-03-23T06:37:05;98046.38;;;12.49;58.84
43115;BME280;28727;50.068;14.452;2024-03-23T06:39:38;98037.22;;;12.51;58.89
43115;BME280;28727;50.068;14.452;2024-03-23T06:42:15;98027.81;;;12.55;58.70
43115;BME280;28727;50.068;14.452;2024-03-23T06:44:46;98031.97;;;12.76;58.77
43115;BME280;28727;50.068;14.452;2024-03-23T06:47:17;98031.22;;;12.94;57.88
43115;BME280;28727;50.068;14.452;2024-03-23T06:49:50;98027.03;;;13.04;57.60
43115;BME280;28727;50.068;14.452;2024-03-23T06:52:20;98019.88;;;13.36;57.29
43115;BME280;28727;50.068;14.452;2024-03-23T06:54:51;98021.00;;;13.65;56.11
43115;BME280;28727;50.068;14.452;2024-03-23T06:57:23;98012.47;;;14.11;55.68
43115;BME280;28727;50.068;14.452;2024-03-23T06:59:55;97997.53;;;14.58;54.35
43115;BME280;28727;50.068;14.452;2024-03-23T07:02:26;97996.78;;;14.81;53.35
43115;BME280;28727;50.068;14.452;2024-03-23T07:04:58;97989.19;;;15.20;53.00
43115;BME280;28727;50.068;14.452;2024-03-23T07:07:29;97996.47;;;15.36;51.39
43115;BME280;28727;50.068;14.452;2024-03-23T07:10:00;97989.63;;;15.63;51.44
43115;BME280;28727;50.068;14.452;2024-03-23T07:12:31;97989.84;;;15.62;51.39
43115;BME280;28727;50.068;14.452;2024-03-23T07:15:02;97980.13;;;15.55;51.52
43115;BME280;28727;50.068;14.452;2024-03-23T07:17:34;97972.84;;;15.39;51.66
43115;BME280;28727;50.068;14.452;2024-03-23T07:20:08;97961.63;;;15.26;52.16
43115;BME280;28727;50.068;14.452;2024-03-23T07:22:41;97957.81;;;15.22;52.14
43115;BME280;28727;50.068;14.452;2024-03-23T07:25:37;97948.69;;;15.29;52.06
43115;BME280;28727;50.068;14.452;2024-03-23T07:28:08;97928.75;;;15.43;51.78
43115;BME280;28727;50.068;14.452;2024-03-23T07:30:46;97949.25;;;15.43;51.32
43115;BME280;28727;50.068;14.452;2024-03-23T07:33:48;97942.06;;;15.43;51.56
43115;BME280;28727;50.068;14.452;2024-03-23T07:36:21;97941.81;;;15.96;50.89
43115;BME280;28727;50.068;14.452;2024-03-23T07:38:52;97937.75;;;16.67;49.06
43115;BME280;28727;50.068;14.452;2024-03-23T07:41:23;97924.16;;;17.19;48.43
43115;BME280;28727;50.068;14.452;2024-03-23T07:43:54;97921.16;;;17.54;47.39
43115;BME280;28727;50.068;14.452;2024-03-23T07:46:30;97914.44;;;17.73;46.55
43115;BME280;28727;50.068;14.452;2024-03-23T07:49:01;97908.56;;;17.98;46.65
43115;BME280;28727;50.068;14.452;2024-03-23T07:51:34;97900.25;;;18.21;46.13
43115;BME280;28727;50.068;14.452;2024-03-23T07:54:06;97894.31;;;18.46;45.59
43115;BME280;28727;50.068;14.452;2024-03-23T07:56:37;97892.06;;;18.60;44.37
43115;BME280;28727;50.068;14.452;2024-03-23T07:59:08;97875.31;;;18.74;44.31
43115;BME280;28727;50.068;14.452;2024-03-23T08:01:39;97870.94;;;19.00;43.42
43115;BME280;28727;50.068;14.452;2024-03-23T08:04:10;97872.41;;;19.28;42.89
43115;BME280;28727;50.068;14.452;2024-03-23T08:06:41;97870.31;;;19.40;42.36
43115;BME280;28727;50.068;14.452;2024-03-23T08:09:13;97871.84;;;19.83;41.09
43115;BME280;28727;50.068;14.452;2024-03-23T08:11:43;97863.06;;;20.28;40.55
43115;BME280;28727;50.068;14.452;2024-03-23T08:14:16;97859.84;;;20.31;39.81
43115;BME280;28727;50.068;14.452;2024-03-23T08:16:47;97858.53;;;20.44;39.86
43115;BME280;28727;50.068;14.452;2024-03-23T08:19:22;97861.22;;;20.59;39.43
43115;BME280;28727;50.068;14.452;2024-03-23T08:21:53;97859.59;;;20.58;38.30
43115;BME280;28727;50.068;14.452;2024-03-23T08:24:25;97851.03;;;20.36;39.25
43115;BME280;28727;50.068;14.452;2024-03-23T08:26:59;97847.75;;;20.79;39.55
43115;BME280;28727;50.068;14.452;2024-03-23T08:29:55;97840.34;;;21.46;39.03
43115;BME280;28727;50.068;14.452;2024-03-23T08:32:28;97833.91;;;21.91;37.76
43115;BME280;28727;50.068;14.452;2024-03-23T08:34:59;97837.69;;;22.29;36.90
43115;BME280;28727;50.068;14.452;2024-03-23T08:37:30;97831.66;;;22.76;36.40
43115;BME280;28727;50.068;14.452;2024-03-23T08:40:01;97829.97;;;22.85;35.79
43115;BME280;28727;50.068;14.452;2024-03-23T08:42:36;97828.88;;;22.52;36.47
43115;BME280;28727;50.068;14.452;2024-03-23T08:45:08;97828.78;;;22.33;36.83
43115;BME280;28727;50.068;14.452;2024-03-23T08:47:41;97826.25;;;22.47;36.73
43115;BME280;28727;50.068;14.452;2024-03-23T08:50:12;97823.19;;;22.25;36.93
43115;BME280;28727;50.068;14.452;2024-03-23T08:52:44;97809.72;;;21.96;36.29
43115;BME280;28727;50.068;14.452;2024-03-23T08:55:15;97808.84;;;21.51;37.35
43115;BME280;28727;50.068;14.452;2024-03-23T08:57:46;97816.22;;;21.31;38.06
43115;BME280;28727;50.068;14.452;2024-03-23T09:00:20;97797.94;;;21.33;37.67
43115;BME280;28727;50.068;14.452;2024-03-23T09:02:51;97821.91;;;21.19;37.47
43115;BME280;28727;50.068;14.452;2024-03-23T09:05:24;97807.44;;;21.00;38.17
43115;BME280;28727;50.068;14.452;2024-03-23T09:07:55;97812.34;;;20.77;37.65
43115;BME280;28727;50.068;14.452;2024-03-23T09:10:27;97809.97;;;20.25;38.87
43115;BME280;28727;50.068;14.452;2024-03-23T09:13:00;97828.44;;;19.91;39.57
43115;BME280;28727;50.068;14.452;2024-03-23T09:15:31;97830.78;;;19.68;40.18
43115;BME280;28727;50.068;14.452;2024-03-23T09:18:03;97844.00;;;19.22;40.02
43115;BME280;28727;50.068;14.452;2024-03-23T09:20:34;97858.41;;;18.69;40.79
43115;BME280;28727;50.068;14.452;2024-03-23T09:23:06;97876.56;;;18.30;42.33
43115;BME280;28727;50.068;14.452;2024-03-23T09:25:37;97878.53;;;17.86;43.29
43115;BME280;28727;50.068;14.452;2024-03-23T09:28:09;97866.00;;;17.43;44.20
43115;BME280;28727;50.068;14.452;2024-03-23T09:30:46;97887.22;;;17.11;45.26
43115;BME280;28727;50.068;14.452;2024-03-23T09:33:20;97914.50;;;16.96;45.59
43115;BME280;28727;50.068;14.452;2024-03-23T09:35:50;97903.03;;;16.62;47.13
43115;BME280;28727;50.068;14.452;2024-03-23T09:38:46;97895.56;;;16.31;48.93
43115;BME280;28727;50.068;14.452;2024-03-23T09:41:24;97903.19;;;16.11;49.73
43115;BME280;28727;50.068;14.452;2024-03-23T09:43:55;97877.34;;;15.94;50.39
43115;BME280;28727;50.068;14.452;2024-03-23T09:46:26;97891.19;;;15.80;50.98
43115;BME280;28727;50.068;14.452;2024-03-23T09:48:59;97908.84;;;15.46;51.95
43115;BME280;28727;50.068;14.452;2024-03-23T09:51:38;97902.78;;;15.22;52.97
43115;BME280;28727;50.068;14.452;2024-03-23T09:54:08;97896.88;;;15.20;52.81
43115;BME280;28727;50.068;14.452;2024-03-23T09:56:42;97901.38;;;15.08;53.19
43115;BME280;28727;50.068;14.452;2024-03-23T09:59:13;97901.41;;;14.96;53.68
43115;BME280;28727;50.068;14.452;2024-03-23T10:01:45;97923.75;;;14.84;53.65
43115;BME280;28727;50.068;14.452;2024-03-23T10:04:38;97935.50;;;14.64;54.75
43115;BME280;28727;50.068;14.452;2024-03-23T10:07:18;97932.84;;;14.64;54.98
43115;BME280;28727;50.068;14.452;2024-03-23T10:09:50;97943.56;;;14.58;55.11
43115;BME280;28727;50.068;14.452;2024-03-23T10:12:25;97950.28;;;14.60;55.23
43115;BME280;28727;50.068;14.452;2024-03-23T10:14:56;97945.19;;;14.59;55.36
43115;BME280;28727;50.068;14.452;2024-03-23T10:17:27;97951.22;;;14.54;55.30
43115;BME280;28727;50.068;14.452;2024-03-23T10:19:59;97964.22;;;14.44;55.68
43115;BME280;28727;50.068;14.452;2024-03-23T10:22:37;97959.38;;;14.41;55.74
43115;BME280;28727;50.068;14.452;2024-03-23T10:25:12;97960.25;;;14.35;55.70
43115;BME280;28727;50.068;14.452;2024-03-23T10:27:59;97961.59;;;14.26;57.20
43115;BME280;28727;50.068;14.452;2024-03-23T10:30:31;97962.19;;;14.28;56.58
43115;BME280;28727;50.068;14.452;2024-03-23T10:33:31;97981.69;;;14.22;56.38
43115;BME280;28727;50.068;14.452;2024-03-23T10:36:06;97983.19;;;14.18;55.88
43115;BME280;28727;50.068;14.452;2024-03-23T10:38:40;97986.00;;;14.05;56.61
43115;BME280;28727;50.068;14.452;2024-03-23T10:41:15;97986.59;;;14.07;57.36
43115;BME280;28727;50.068;14.452;2024-03-23T10:43:48;97998.59;;;14.09;56.70
43115;BME280;28727;50.068;14.452;2024-03-23T10:46:23;97996.41;;;14.06;56.90
43115;BME280;28727;50.068;14.452;2024-03-23T10:48:58;97969.25;;;14.04;57.20
43115;BME280;28727;50.068;14.452;2024-03-23T10:51:30;98002.28;;;14.08;56.63
43115;BME280;28727;50.068;14.452;2024-03-23T10:54:04;97985.31;;;14.09;57.13
43115;BME280;28727;50.068;14.452;2024-03-23T10:56:39;98000.75;;;14.19;56.45
43115;BME280;28727;50.068;14.452;2024-03-23T10:59:13;97951.63;;;14.10;56.39
43115;BME280;28727;50.068;14.452;2024-03-23T11:01:55;97985.03;;;14.17;56.22
43115;BME280;28727;50.068;14.452;2024-03-23T11:04:36;97991.63;;;14.26;56.24
43115;BME280;28727;50.068;14.452;2024-03-23T11:09:55;97975.66;;;14.45;55.75
43115;BME280;28727;50.068;14.452;2024-03-23T11:12:29;97982.50;;;14.52;55.04
43115;BME280;28727;50.068;14.452;2024-03-23T11:15:04;97978.94;;;14.58;54.96
43115;BME280;28727;50.068;14.452;2024-03-23T11:17:35;97982.66;;;14.69;54.40
43115;BME280;28727;50.068;14.452;2024-03-23T11:20:07;97975.00;;;14.61;54.12
43115;BME280;28727;50.068;14.452;2024-03-23T11:22:45;97977.13;;;14.70;54.06
43115;BME280;28727;50.068;14.452;2024-03-23T11:25:23;97962.53;;;14.73;53.69
43115;BME280;28727;50.068;14.452;2024-03-23T11:27:57;97951.69;;;14.86;52.59
43115;BME280;28727;50.068;14.452;2024-03-23T11:30:28;97973.91;;;14.92;51.71
43115;BME280;28727;50.068;14.452;2024-03-23T11:33:02;97976.44;;;14.98;50.61
43115;BME280;28727;50.068;14.452;2024-03-23T11:35:39;97970.44;;;15.14;50.83
43115;BME280;28727;50.068;14.452;2024-03-23T11:38:17;97976.66;;;15.20;50.73
43115;BME280;28727;50.068;14.452;2024-03-23T11:40:52;97976.53;;;15.38;49.77
43115;BME280;28727;50.068;14.452;2024-03-23T11:43:23;97967.41;;;15.57;49.35
43115;BME280;28727;50.068;14.452;2024-03-23T11:45:55;97962.84;;;15.81;48.13
43115;BME280;28727;50.068;14.452;2024-03-23T11:48:30;97991.16;;;15.99;47.87
43115;BME280;28727;50.068;14.452;2024-03-23T11:51:01;98019.19;;;16.02;45.71
43115;BME280;28727;50.068;14.452;2024-03-23T11:53:33;98029.75;;;15.38;47.90
43115;BME280;28727;50.068;14.452;2024-03-23T11:56:08;98034.78;;;14.70;49.90
43115;BME280;28727;50.068;14.452;2024-03-23T11:58:42;98029.91;;;14.07;50.65
43115;BME280;28727;50.068;14.452;2024-03-23T12:01:14;98050.53;;;13.69;51.75
43115;BME280;28727;50.068;14.452;2024-03-23T12:03:45;98067.84;;;13.53;51.09
43115;BME280;28727;50.068;14.452;2024-03-23T12:06:20;98071.59;;;13.21;49.46
43115;BME280;28727;50.068;14.452;2024-03-23T12:08:51;98085.84;;;12.63;50.65
43115;BME280;28727;50.068;14.452;2024-03-23T12:11:22;98099.00;;;12.39;51.04
43115;BME280;28727;50.068;14.452;2024-03-23T12:13:59;98109.47;;;12.20;52.30
43115;BME280;28727;50.068;14.452;2024-03-23T12:16:30;98118.25;;;12.14;51.57
43115;BME280;28727;50.068;14.452;2024-03-23T12:19:05;98117.25;;;12.02;51.92
43115;BME280;28727;50.068;14.452;2024-03-23T12:21:38;98106.47;;;12.04;50.32
43115;BME280;28727;50.068;14.452;2024-03-23T12:24:09;98113.78;;;12.08;50.57
43115;BME280;28727;50.068;14.452;2024-03-23T12:26:43;98120.91;;;12.08;50.03
43115;BME280;28727;50.068;14.452;2024-03-23T12:29:16;98117.25;;;12.02;49.32
43115;BME280;28727;50.068;14.452;2024-03-23T12:31:48;98128.69;;;11.96;49.50
43115;BME280;28727;50.068;14.452;2024-03-23T12:34:22;98132.16;;;11.97;49.64
43115;BME280;28727;50.068;14.452;2024-03-23T12:36:56;98147.00;;;11.98;49.16
43115;BME280;28727;50.068;14.452;2024-03-23T12:39:27;98150.66;;;12.03;48.58
43115;BME280;28727;50.068;14.452;2024-03-23T12:41:58;98143.16;;;12.00;48.75
43115;BME280;28727;50.068;14.452;2024-03-23T12:44:29;98149.84;;;12.03;48.72
43115;BME280;28727;50.068;14.452;2024-03-23T12:47:03;98147.63;;;12.06;49.15
43115;BME280;28727;50.068;14.452;2024-03-23T12:49:59;98170.38;;;12.14;47.90
43115;BME280;28727;50.068;14.452;2024-03-23T12:52:29;98199.09;;;12.17;47.97
43115;BME280;28727;50.068;14.452;2024-03-23T12:55:00;98233.09;;;12.20;48.29
43115;BME280;28727;50.068;14.452;2024-03-23T12:57:32;98228.81;;;12.25;47.22
43115;BME280;28727;50.068;14.452;2024-03-23T13:00:07;98239.81;;;12.36;46.49
43115;BME280;28727;50.068;14.452;2024-03-23T13:02:40;98251.22;;;12.29;46.36
43115;BME280;28727;50.068;14.452;2024-03-23T13:05:14;98252.44;;;12.20;46.15
43115;BME280;28727;50.068;14.452;2024-03-23T13:07:45;98252.44;;;12.14;46.47
43115;BME280;28727;50.068;14.452;2024-03-23T13:10:16;98266.31;;;12.16;46.24
43115;BME280;28727;50.068;14.452;2024-03-23T13:12:47;98268.94;;;12.16;46.25
43115;BME280;28727;50.068;14.452;2024-03-23T13:15:20;98298.50;;;12.13;46.15
43115;BME280;28727;50.068;14.452;2024-03-23T13:17:51;98286.47;;;12.04;45.91
43115;BME280;28727;50.068;14.452;2024-03-23T13:20:24;98296.47;;;11.95;46.37
43115;BME280;28727;50.068;14.452;2024-03-23T13:22:56;98275.47;;;12.00;46.33
43115;BME280;28727;50.068;14.452;2024-03-23T13:25:26;98276.28;;;12.14;46.17
43115;BME280;28727;50.068;14.452;2024-03-23T13:27:58;98293.59;;;12.10;46.67
43115;BME280;28727;50.068;14.452;2024-03-23T13:30:29;98290.31;;;12.08;45.78
43115;BME280;28727;50.068;14.452;2024-03-23T13:33:02;98292.78;;;12.16;46.02
43115;BME280;28727;50.068;14.452;2024-03-23T13:35:34;98288.28;;;12.43;45.43
43115;BME280;28727;50.068;14.452;2024-03-23T13:38:05;98282.28;;;12.67;45.54
43115;BME280;28727;50.068;14.452;2024-03-23T13:40:37;98301.41;;;12.82;44.80
43115;BME280;28727;50.068;14.452;2024-03-23T13:43:09;98299.78;;;12.81;44.98
43115;BME280;28727;50.068;14.452;2024-03-23T13:46:08;98295.78;;;12.59;42.85
43115;BME280;28727;50.068;14.452;2024-03-23T13:48:41;98301.09;;;12.46;43.76
43115;BME280;28727;50.068;14.452;2024-03-23T13:51:12;98314.75;;;12.43;43.79
43115;BME280;28727;50.068;14.452;2024-03-23T13:53:48;98335.72;;;12.38;44.47
43115;BME280;28727;50.068;14.452;2024-03-23T13:56:25;98340.44;;;12.36;44.78
43115;BME280;28727;50.068;14.452;2024-03-23T13:58:56;98341.25;;;12.36;44.91
43115;BME280;28727;50.068;14.452;2024-03-23T14:01:28;98350.59;;;12.45;43.98
43115;BME280;28727;50.068;14.452;2024-03-23T14:03:59;98336.78;;;12.37;44.89
43115;BME280;28727;50.068;14.452;2024-03-23T14:06:30;98323.72;;;12.28;45.03
43115;BME280;28727;50.068;14.452;2024-03-23T14:09:01;98346.72;;;12.15;45.81
43115;BME280;28727;50.068;14.452;2024-03-23T14:11:37;98348.56;;;12.14;45.14
43115;BME280;28727;50.068;14.452;2024-03-23T14:14:09;98347.34;;;12.04;45.24
43115;BME280;28727;50.068;14.452;2024-03-23T14:16:42;98358.72;;;11.84;45.47